sensor_id;sensor_type;location;lat;lon;timestamp;P1;durP1;ratioP1;P2;durP2;ratioP2
15358;SDS011;7779;49.596;11.070;2022-11-04T00:01:54;5.63;;;4.90;;
15358;SDS011;7779;49.596;11.070;2022-11-04T00:04:23;6.07;;;5.10;;
15358;SDS011;7779;49.596;11.070;2022-11-04T00:06:51;7.17;;;5.07;;
15358;SDS011;7779;49.596;11.070;2022-11-04T00:09:19;7.27;;;5.53;;
15358;SDS011;7779;49.596;11.070;2022-11-04T00:11:47;8.23;;;5.07;;
15358;SDS011;7779;49.596;11.070;2022-11-04T00:14:32;7.63;;;5.47;;
15358;SDS011;7779;49.596;11.070;2022-11-04T00:17:00;6.00;;;5.40;;
15358;SDS011;7779;49.596;11.070;2022-11-04T00:19:47;6.50;;;5.13;;
15358;SDS011;7779;49.596;11.070;2022-11-04T00:22:36;6.93;;;5.90;;
15358;SDS011;7779;49.596;11.070;2022-11-04T00:25:23;6.23;;;5.30;;
15358;SDS011;7779;49.596;11.070;2022-11-04T00:28:13;6.07;;;5.37;;
15358;SDS011;7779;49.596;11.070;2022-11-04T00:31:01;6.47;;;5.30;;
15358;SDS011;7779;49.596;11.070;2022-11-04T00:33:48;7.57;;;5.20;;
15358;SDS011;7779;49.596;11.070;2022-11-04T00:36:17;5.77;;;5.17;;
15358;SDS011;7779;49.596;11.070;2022-11-04T00:38:43;8.27;;;5.63;;
15358;SDS011;7779;49.596;11.070;2022-11-04T00:41:09;6.27;;;5.37;;
15358;SDS011;7779;49.596;11.070;2022-11-04T00:43:53;6.77;;;5.40;;
15358;SDS011;7779;49.596;11.070;2022-11-04T00:46:24;7.80;;;5.60;;
15358;SDS011;7779;49.596;11.070;2022-11-04T00:48:52;7.77;;;5.90;;
15358;SDS011;7779;49.596;11.070;2022-11-04T00:51:18;8.93;;;5.40;;
15358;SDS011;7779;49.596;11.070;2022-11-04T00:53:45;7.37;;;5.63;;
15358;SDS011;7779;49.596;11.070;2022-11-04T00:56:11;6.80;;;5.33;;
15358;SDS011;7779;49.596;11.070;2022-11-04T00:58:37;8.00;;;5.97;;
15358;SDS011;7779;49.596;11.070;2022-11-04T01:01:06;8.80;;;5.43;;
15358;SDS011;7779;49.596;11.070;2022-11-04T01:03:34;8.03;;;5.57;;
15358;SDS011;7779;49.596;11.070;2022-11-04T01:06:00;6.80;;;5.37;;
15358;SDS011;7779;49.596;11.070;2022-11-04T01:08:25;7.80;;;5.47;;
15358;SDS011;7779;49.596;11.070;2022-11-04T01:10:51;6.30;;;5.43;;
15358;SDS011;7779;49.596;11.070;2022-11-04T01:13:17;6.27;;;5.30;;
15358;SDS011;7779;49.596;11.070;2022-11-04T01:15:42;5.60;;;5.00;;
15358;SDS011;7779;49.596;11.070;2022-11-04T01:18:08;6.57;;;5.50;;
15358;SDS011;7779;49.596;11.070;2022-11-04T01:20:34;6.60;;;5.10;;
15358;SDS011;7779;49.596;11.070;2022-11-04T01:23:00;7.83;;;5.30;;
15358;SDS011;7779;49.596;11.070;2022-11-04T01:25:25;7.77;;;5.40;;
15358;SDS011;7779;49.596;11.070;2022-11-04T01:27:51;6.43;;;5.70;;
15358;SDS011;7779;49.596;11.070;2022-11-04T01:30:17;7.20;;;5.83;;
15358;SDS011;7779;49.596;11.070;2022-11-04T01:32:43;8.03;;;5.63;;
15358;SDS011;7779;49.596;11.070;2022-11-04T01:35:09;8.23;;;5.97;;
15358;SDS011;7779;49.596;11.070;2022-11-04T01:37:34;6.53;;;4.97;;
15358;SDS011;7779;49.596;11.070;2022-11-04T01:40:00;6.23;;;5.00;;
15358;SDS011;7779;49.596;11.070;2022-11-04T01:42:26;6.37;;;5.30;;
15358;SDS011;7779;49.596;11.070;2022-11-04T01:45:01;7.17;;;5.20;;
15358;SDS011;7779;49.596;11.070;2022-11-04T01:47:31;5.73;;;4.63;;
15358;SDS011;7779;49.596;11.070;2022-11-04T01:50:08;5.37;;;4.77;;
15358;SDS011;7779;49.596;11.070;2022-11-04T01:52:46;7.13;;;5.30;;
15358;SDS011;7779;49.596;11.070;2022-11-04T01:55:30;7.30;;;5.07;;
15358;SDS011;7779;49.596;11.070;2022-11-04T01:58:03;7.03;;;5.40;;
15358;SDS011;7779;49.596;11.070;2022-11-04T02:00:37;4.87;;;4.27;;
15358;SDS011;7779;49.596;11.070;2022-11-04T02:03:06;6.20;;;4.73;;
15358;SDS011;7779;49.596;11.070;2022-11-04T02:05:39;5.67;;;4.40;;
15358;SDS011;7779;49.596;11.070;2022-11-04T02:08:06;4.87;;;3.93;;
15358;SDS011;7779;49.596;11.070;2022-11-04T02:10:33;4.53;;;3.97;;
15358;SDS011;7779;49.596;11.070;2022-11-04T02:13:00;4.10;;;3.50;;
15358;SDS011;7779;49.596;11.070;2022-11-04T02:27:32;2.60;;;2.07;;
15358;SDS011;7779;49.596;11.070;2022-11-04T02:30:21;1.90;;;1.70;;
15358;SDS011;7779;49.596;11.070;2022-11-04T02:32:52;1.60;;;1.50;;
15358;SDS011;7779;49.596;11.070;2022-11-04T02:35:43;1.97;;;1.60;;
15358;SDS011;7779;49.596;11.070;2022-11-04T02:41:33;2.17;;;1.50;;
15358;SDS011;7779;49.596;11.070;2022-11-04T02:44:17;1.67;;;1.57;;
15358;SDS011;7779;49.596;11.070;2022-11-04T02:46:52;2.27;;;1.57;;
15358;SDS011;7779;49.596;11.070;2022-11-04T02:49:30;1.67;;;1.27;;
15358;SDS011;7779;49.596;11.070;2022-11-04T02:52:05;2.43;;;1.20;;
15358;SDS011;7779;49.596;11.070;2022-11-04T02:54:45;1.43;;;1.33;;
15358;SDS011;7779;49.596;11.070;2022-11-04T02:57:25;1.40;;;1.30;;
15358;SDS011;7779;49.596;11.070;2022-11-04T02:59:58;1.30;;;1.07;;
15358;SDS011;7779;49.596;11.070;2022-11-04T03:02:47;3.77;;;1.43;;
15358;SDS011;7779;49.596;11.070;2022-11-04T03:05:35;1.40;;;1.20;;
15358;SDS011;7779;49.596;11.070;2022-11-04T03:08:08;3.17;;;1.20;;
15358;SDS011;7779;49.596;11.070;2022-11-04T03:10:48;1.20;;;1.10;;
15358;SDS011;7779;49.596;11.070;2022-11-04T03:13:22;1.30;;;1.20;;
15358;SDS011;7779;49.596;11.070;2022-11-04T03:15:58;1.73;;;1.17;;
15358;SDS011;7779;49.596;11.070;2022-11-04T03:21:07;1.23;;;0.97;;
15358;SDS011;7779;49.596;11.070;2022-11-04T03:23:36;1.37;;;1.17;;
15358;SDS011;7779;49.596;11.070;2022-11-04T03:26:06;1.10;;;1.00;;
15358;SDS011;7779;49.596;11.070;2022-11-04T03:29:25;1.17;;;1.07;;
15358;SDS011;7779;49.596;11.070;2022-11-04T03:35:00;1.33;;;1.10;;
15358;SDS011;7779;49.596;11.070;2022-11-04T03:37:26;1.13;;;1.03;;
15358;SDS011;7779;49.596;11.070;2022-11-04T03:39:52;1.03;;;0.93;;
15358;SDS011;7779;49.596;11.070;2022-11-04T03:42:18;0.93;;;0.90;;
15358;SDS011;7779;49.596;11.070;2022-11-04T03:44:53;1.43;;;1.00;;
15358;SDS011;7779;49.596;11.070;2022-11-04T03:47:22;1.60;;;1.10;;
15358;SDS011;7779;49.596;11.070;2022-11-04T03:49:51;1.43;;;1.27;;
15358;SDS011;7779;49.596;11.070;2022-11-04T03:52:50;1.30;;;0.90;;
15358;SDS011;7779;49.596;11.070;2022-11-04T03:55:16;0.70;;;0.70;;
15358;SDS011;7779;49.596;11.070;2022-11-04T03:57:47;1.93;;;0.90;;
15358;SDS011;7779;49.596;11.070;2022-11-04T04:00:28;1.10;;;0.80;;
15358;SDS011;7779;49.596;11.070;2022-11-04T04:03:18;2.23;;;1.10;;
15358;SDS011;7779;49.596;11.070;2022-11-04T04:05:59;1.50;;;1.10;;
15358;SDS011;7779;49.596;11.070;2022-11-04T04:08:37;1.30;;;1.00;;
15358;SDS011;7779;49.596;11.070;2022-11-04T04:14:05;1.10;;;1.00;;
15358;SDS011;7779;49.596;11.070;2022-11-04T04:19:57;1.20;;;1.00;;
15358;SDS011;7779;49.596;11.070;2022-11-04T04:22:29;1.13;;;0.93;;
15358;SDS011;7779;49.596;11.070;2022-11-04T04:25:06;1.10;;;1.00;;
15358;SDS011;7779;49.596;11.070;2022-11-04T04:27:55;1.57;;;1.07;;
15358;SDS011;7779;49.596;11.070;2022-11-04T04:30:23;0.90;;;0.90;;
15358;SDS011;7779;49.596;11.070;2022-11-04T04:32:50;1.23;;;1.10;;
15358;SDS011;7779;49.596;11.070;2022-11-04T04:35:31;1.13;;;1.00;;
15358;SDS011;7779;49.596;11.070;2022-11-04T04:41:21;0.93;;;0.93;;
15358;SDS011;7779;49.596;11.070;2022-11-04T04:44:25;1.17;;;0.90;;
15358;SDS011;7779;49.596;11.070;2022-11-04T04:47:13;1.27;;;0.97;;
15358;SDS011;7779;49.596;11.070;2022-11-04T04:49:48;1.00;;;0.80;;
15358;SDS011;7779;49.596;11.070;2022-11-04T04:52:18;1.47;;;0.93;;
15358;SDS011;7779;49.596;11.070;2022-11-04T04:54:46;1.60;;;1.00;;
15358;SDS011;7779;49.596;11.070;2022-11-04T04:57:12;1.10;;;1.00;;
15358;SDS011;7779;49.596;11.070;2022-11-04T04:59:38;2.27;;;1.00;;
15358;SDS011;7779;49.596;11.070;2022-11-04T05:02:04;1.10;;;0.87;;
15358;SDS011;7779;49.596;11.070;2022-11-04T05:04:30;1.30;;;1.00;;
15358;SDS011;7779;49.596;11.070;2022-11-04T05:06:56;0.80;;;0.80;;
15358;SDS011;7779;49.596;11.070;2022-11-04T05:09:21;1.10;;;0.90;;
15358;SDS011;7779;49.596;11.070;2022-11-04T05:11:47;1.40;;;0.97;;
15358;SDS011;7779;49.596;11.070;2022-11-04T05:14:13;1.20;;;1.10;;
15358;SDS011;7779;49.596;11.070;2022-11-04T05:16:39;1.37;;;1.20;;
15358;SDS011;7779;49.596;11.070;2022-11-04T05:19:05;1.33;;;0.90;;
15358;SDS011;7779;49.596;11.070;2022-11-04T05:21:30;0.87;;;0.87;;
15358;SDS011;7779;49.596;11.070;2022-11-04T05:23:56;2.07;;;1.10;;
15358;SDS011;7779;49.596;11.070;2022-11-04T05:26:22;0.70;;;0.70;;
15358;SDS011;7779;49.596;11.070;2022-11-04T05:28:47;0.90;;;0.90;;
15358;SDS011;7779;49.596;11.070;2022-11-04T05:31:13;1.23;;;1.00;;
15358;SDS011;7779;49.596;11.070;2022-11-04T05:33:39;1.20;;;1.00;;
15358;SDS011;7779;49.596;11.070;2022-11-04T05:36:12;2.60;;;0.90;;
15358;SDS011;7779;49.596;11.070;2022-11-04T05:38:40;1.20;;;0.90;;
15358;SDS011;7779;49.596;11.070;2022-11-04T05:41:08;1.17;;;1.00;;
15358;SDS011;7779;49.596;11.070;2022-11-04T05:43:36;1.53;;;0.90;;
15358;SDS011;7779;49.596;11.070;2022-11-04T05:46:02;1.63;;;0.80;;
15358;SDS011;7779;49.596;11.070;2022-11-04T05:48:28;1.00;;;0.80;;
15358;SDS011;7779;49.596;11.070;2022-11-04T05:50:54;1.70;;;1.10;;
15358;SDS011;7779;49.596;11.070;2022-11-04T05:53:20;1.60;;;1.00;;
15358;SDS011;7779;49.596;11.070;2022-11-04T05:55:46;1.30;;;1.00;;
15358;SDS011;7779;49.596;11.070;2022-11-04T05:58:11;1.17;;;1.07;;
15358;SDS011;7779;49.596;11.070;2022-11-04T06:00:37;1.30;;;1.10;;
15358;SDS011;7779;49.596;11.070;2022-11-04T06:03:03;1.30;;;1.10;;
15358;SDS011;7779;49.596;11.070;2022-11-04T06:05:28;1.33;;;1.07;;
15358;SDS011;7779;49.596;11.070;2022-11-04T06:07:55;1.33;;;0.93;;
15358;SDS011;7779;49.596;11.070;2022-11-04T06:10:21;0.80;;;0.80;;
15358;SDS011;7779;49.596;11.070;2022-11-04T06:12:48;1.00;;;0.90;;
15358;SDS011;7779;49.596;11.070;2022-11-04T06:15:14;1.37;;;1.20;;
15358;SDS011;7779;49.596;11.070;2022-11-04T06:17:39;2.20;;;2.00;;
15358;SDS011;7779;49.596;11.070;2022-11-04T06:20:05;2.60;;;2.40;;
15358;SDS011;7779;49.596;11.070;2022-11-04T06:22:31;2.13;;;1.93;;
15358;SDS011;7779;49.596;11.070;2022-11-04T06:24:57;1.70;;;1.60;;
15358;SDS011;7779;49.596;11.070;2022-11-04T06:27:23;5.27;;;3.00;;
15358;SDS011;7779;49.596;11.070;2022-11-04T06:29:49;2.20;;;1.83;;
15358;SDS011;7779;49.596;11.070;2022-11-04T06:32:17;2.13;;;1.90;;
15358;SDS011;7779;49.596;11.070;2022-11-04T06:34:44;1.60;;;1.20;;
15358;SDS011;7779;49.596;11.070;2022-11-04T06:37:10;1.43;;;1.33;;
15358;SDS011;7779;49.596;11.070;2022-11-04T06:39:36;3.27;;;1.40;;
15358;SDS011;7779;49.596;11.070;2022-11-04T06:42:02;1.30;;;1.20;;
15358;SDS011;7779;49.596;11.070;2022-11-04T06:44:29;1.73;;;1.30;;
15358;SDS011;7779;49.596;11.070;2022-11-04T06:46:54;1.50;;;1.20;;
15358;SDS011;7779;49.596;11.070;2022-11-04T06:49:20;1.27;;;0.80;;
15358;SDS011;7779;49.596;11.070;2022-11-04T06:51:47;1.10;;;1.00;;
15358;SDS011;7779;49.596;11.070;2022-11-04T06:54:14;1.47;;;1.00;;
15358;SDS011;7779;49.596;11.070;2022-11-04T06:56:41;1.97;;;0.80;;
15358;SDS011;7779;49.596;11.070;2022-11-04T06:59:08;2.83;;;1.00;;
15358;SDS011;7779;49.596;11.070;2022-11-04T07:01:43;3.13;;;1.00;;
15358;SDS011;7779;49.596;11.070;2022-11-04T07:04:09;1.10;;;0.70;;
15358;SDS011;7779;49.596;11.070;2022-11-04T07:06:35;2.40;;;0.90;;
15358;SDS011;7779;49.596;11.070;2022-11-04T07:09:01;0.93;;;0.77;;
15358;SDS011;7779;49.596;11.070;2022-11-04T07:11:30;1.40;;;0.90;;
15358;SDS011;7779;49.596;11.070;2022-11-04T07:13:57;1.60;;;0.70;;
15358;SDS011;7779;49.596;11.070;2022-11-04T07:16:22;1.70;;;1.03;;
15358;SDS011;7779;49.596;11.070;2022-11-04T07:18:49;2.47;;;1.17;;
15358;SDS011;7779;49.596;11.070;2022-11-04T07:21:16;2.60;;;1.10;;
15358;SDS011;7779;49.596;11.070;2022-11-04T07:23:42;2.90;;;1.10;;
15358;SDS011;7779;49.596;11.070;2022-11-04T07:26:08;1.23;;;0.97;;
15358;SDS011;7779;49.596;11.070;2022-11-04T07:28:35;2.00;;;1.00;;
15358;SDS011;7779;49.596;11.070;2022-11-04T07:31:02;0.77;;;0.70;;
15358;SDS011;7779;49.596;11.070;2022-11-04T07:33:30;1.20;;;0.70;;
15358;SDS011;7779;49.596;11.070;2022-11-04T07:35:58;1.23;;;0.70;;
15358;SDS011;7779;49.596;11.070;2022-11-04T07:38:31;2.13;;;0.83;;
15358;SDS011;7779;49.596;11.070;2022-11-04T07:40:57;3.27;;;0.70;;
15358;SDS011;7779;49.596;11.070;2022-11-04T07:43:23;2.53;;;0.80;;
15358;SDS011;7779;49.596;11.070;2022-11-04T07:46:07;2.17;;;0.60;;
15358;SDS011;7779;49.596;11.070;2022-11-04T07:48:38;1.50;;;0.70;;
15358;SDS011;7779;49.596;11.070;2022-11-04T07:51:05;1.90;;;0.77;;
15358;SDS011;7779;49.596;11.070;2022-11-04T07:53:32;1.40;;;0.70;;
15358;SDS011;7779;49.596;11.070;2022-11-04T07:56:01;2.00;;;1.00;;
15358;SDS011;7779;49.596;11.070;2022-11-04T07:58:32;1.63;;;1.07;;
15358;SDS011;7779;49.596;11.070;2022-11-04T08:00:59;2.50;;;1.47;;
15358;SDS011;7779;49.596;11.070;2022-11-04T08:03:27;1.77;;;1.23;;
15358;SDS011;7779;49.596;11.070;2022-11-04T08:05:54;3.63;;;1.37;;
15358;SDS011;7779;49.596;11.070;2022-11-04T08:08:21;2.47;;;1.40;;
15358;SDS011;7779;49.596;11.070;2022-11-04T08:10:51;4.37;;;1.33;;
15358;SDS011;7779;49.596;11.070;2022-11-04T08:13:28;2.33;;;1.70;;
15358;SDS011;7779;49.596;11.070;2022-11-04T08:15:57;1.67;;;1.57;;
15358;SDS011;7779;49.596;11.070;2022-11-04T08:18:27;1.90;;;1.70;;
15358;SDS011;7779;49.596;11.070;2022-11-04T08:20:55;3.13;;;1.57;;
15358;SDS011;7779;49.596;11.070;2022-11-04T08:23:21;2.10;;;1.70;;
15358;SDS011;7779;49.596;11.070;2022-11-04T08:25:46;2.30;;;1.40;;
15358;SDS011;7779;49.596;11.070;2022-11-04T08:28:12;1.73;;;1.43;;
15358;SDS011;7779;49.596;11.070;2022-11-04T08:31:27;3.30;;;1.80;;
15358;SDS011;7779;49.596;11.070;2022-11-04T08:33:50;2.77;;;1.40;;
15358;SDS011;7779;49.596;11.070;2022-11-04T08:36:28;1.90;;;1.20;;
15358;SDS011;7779;49.596;11.070;2022-11-04T08:38:58;1.30;;;1.20;;
15358;SDS011;7779;49.596;11.070;2022-11-04T08:41:25;1.93;;;1.20;;
15358;SDS011;7779;49.596;11.070;2022-11-04T08:43:55;2.20;;;1.20;;
15358;SDS011;7779;49.596;11.070;2022-11-04T08:46:24;1.93;;;1.33;;
15358;SDS011;7779;49.596;11.070;2022-11-04T08:48:53;1.90;;;1.20;;
15358;SDS011;7779;49.596;11.070;2022-11-04T08:51:21;2.20;;;1.30;;
15358;SDS011;7779;49.596;11.070;2022-11-04T08:53:49;1.93;;;1.37;;
15358;SDS011;7779;49.596;11.070;2022-11-04T08:58:47;3.33;;;1.80;;
15358;SDS011;7779;49.596;11.070;2022-11-04T09:01:14;3.60;;;1.47;;
15358;SDS011;7779;49.596;11.070;2022-11-04T09:03:41;1.37;;;1.23;;
15358;SDS011;7779;49.596;11.070;2022-11-04T09:06:08;1.53;;;1.10;;
15358;SDS011;7779;49.596;11.070;2022-11-04T09:08:37;2.43;;;1.50;;
15358;SDS011;7779;49.596;11.070;2022-11-04T09:11:07;2.90;;;1.93;;
15358;SDS011;7779;49.596;11.070;2022-11-04T09:13:37;3.63;;;2.37;;
15358;SDS011;7779;49.596;11.070;2022-11-04T09:16:03;3.07;;;1.97;;
15358;SDS011;7779;49.596;11.070;2022-11-04T09:18:30;2.60;;;1.57;;
15358;SDS011;7779;49.596;11.070;2022-11-04T09:20:59;2.27;;;1.43;;
15358;SDS011;7779;49.596;11.070;2022-11-04T09:23:27;3.77;;;1.30;;
15358;SDS011;7779;49.596;11.070;2022-11-04T09:25:52;2.53;;;1.30;;
15358;SDS011;7779;49.596;11.070;2022-11-04T09:28:21;2.43;;;1.40;;
15358;SDS011;7779;49.596;11.070;2022-11-04T09:30:47;2.47;;;0.97;;
15358;SDS011;7779;49.596;11.070;2022-11-04T09:33:13;2.53;;;1.07;;
15358;SDS011;7779;49.596;11.070;2022-11-04T09:35:38;2.53;;;1.23;;
15358;SDS011;7779;49.596;11.070;2022-11-04T09:38:04;2.33;;;1.10;;
15358;SDS011;7779;49.596;11.070;2022-11-04T09:40:31;3.37;;;1.30;;
15358;SDS011;7779;49.596;11.070;2022-11-04T09:43:22;3.03;;;1.10;;
15358;SDS011;7779;49.596;11.070;2022-11-04T09:46:26;1.93;;;1.10;;
15358;SDS011;7779;49.596;11.070;2022-11-04T09:48:57;2.40;;;1.00;;
15358;SDS011;7779;49.596;11.070;2022-11-04T09:51:29;1.87;;;0.90;;
15358;SDS011;7779;49.596;11.070;2022-11-04T09:53:59;1.50;;;1.10;;
15358;SDS011;7779;49.596;11.070;2022-11-04T09:56:37;4.20;;;1.23;;
15358;SDS011;7779;49.596;11.070;2022-11-04T09:59:08;1.07;;;0.77;;
15358;SDS011;7779;49.596;11.070;2022-11-04T10:02:00;2.10;;;1.23;;
15358;SDS011;7779;49.596;11.070;2022-11-04T10:10:55;1.93;;;0.93;;
15358;SDS011;7779;49.596;11.070;2022-11-04T10:22:28;2.83;;;0.97;;
15358;SDS011;7779;49.596;11.070;2022-11-04T10:25:13;1.73;;;0.80;;
15358;SDS011;7779;49.596;11.070;2022-11-04T10:27:46;1.67;;;0.90;;
15358;SDS011;7779;49.596;11.070;2022-11-04T10:30:15;2.40;;;1.10;;
15358;SDS011;7779;49.596;11.070;2022-11-04T10:32:51;1.67;;;1.07;;
15358;SDS011;7779;49.596;11.070;2022-11-04T10:35:41;1.93;;;1.00;;
15358;SDS011;7779;49.596;11.070;2022-11-04T10:38:17;1.67;;;1.00;;
15358;SDS011;7779;49.596;11.070;2022-11-04T10:41:00;3.00;;;1.30;;
15358;SDS011;7779;49.596;11.070;2022-11-04T10:46:19;4.47;;;1.10;;
15358;SDS011;7779;49.596;11.070;2022-11-04T10:48:59;1.50;;;1.10;;
15358;SDS011;7779;49.596;11.070;2022-11-04T10:51:49;2.27;;;0.90;;
15358;SDS011;7779;49.596;11.070;2022-11-04T10:54:15;2.43;;;0.90;;
15358;SDS011;7779;49.596;11.070;2022-11-04T10:56:51;2.93;;;1.10;;
15358;SDS011;7779;49.596;11.070;2022-11-04T11:01:59;2.20;;;0.97;;
15358;SDS011;7779;49.596;11.070;2022-11-04T11:07:02;2.50;;;1.00;;
15358;SDS011;7779;49.596;11.070;2022-11-04T11:14:40;3.50;;;1.00;;
15358;SDS011;7779;49.596;11.070;2022-11-04T11:20:00;2.67;;;1.00;;
15358;SDS011;7779;49.596;11.070;2022-11-04T11:22:48;2.53;;;1.10;;
15358;SDS011;7779;49.596;11.070;2022-11-04T11:25:32;3.33;;;0.73;;
15358;SDS011;7779;49.596;11.070;2022-11-04T11:28:00;2.53;;;0.80;;
15358;SDS011;7779;49.596;11.070;2022-11-04T11:33:24;2.13;;;1.00;;
15358;SDS011;7779;49.596;11.070;2022-11-04T11:35:57;1.63;;;0.77;;
15358;SDS011;7779;49.596;11.070;2022-11-04T11:38:57;1.83;;;0.90;;
15358;SDS011;7779;49.596;11.070;2022-11-04T11:44:30;1.83;;;0.70;;
15358;SDS011;7779;49.596;11.070;2022-11-04T11:50:06;1.60;;;0.80;;
15358;SDS011;7779;49.596;11.070;2022-11-04T11:53:18;2.00;;;0.80;;
15358;SDS011;7779;49.596;11.070;2022-11-04T11:56:06;2.63;;;1.00;;
15358;SDS011;7779;49.596;11.070;2022-11-04T11:58:57;2.33;;;0.70;;
15358;SDS011;7779;49.596;11.070;2022-11-04T12:01:34;0.70;;;0.50;;
15358;SDS011;7779;49.596;11.070;2022-11-04T12:04:06;1.50;;;0.70;;
15358;SDS011;7779;49.596;11.070;2022-11-04T12:09:44;3.63;;;0.70;;
15358;SDS011;7779;49.596;11.070;2022-11-04T12:12:48;1.93;;;0.70;;
15358;SDS011;7779;49.596;11.070;2022-11-04T12:21:18;1.40;;;0.60;;
15358;SDS011;7779;49.596;11.070;2022-11-04T12:27:19;4.77;;;0.70;;
15358;SDS011;7779;49.596;11.070;2022-11-04T12:30:07;1.07;;;0.43;;
15358;SDS011;7779;49.596;11.070;2022-11-04T12:44:38;2.43;;;0.87;;
15358;SDS011;7779;49.596;11.070;2022-11-04T12:47:28;1.70;;;0.60;;
15358;SDS011;7779;49.596;11.070;2022-11-04T12:56:29;2.07;;;0.80;;
15358;SDS011;7779;49.596;11.070;2022-11-04T13:01:50;3.37;;;0.80;;
15358;SDS011;7779;49.596;11.070;2022-11-04T13:04:30;1.60;;;0.70;;
15358;SDS011;7779;49.596;11.070;2022-11-04T13:07:20;2.73;;;0.80;;
15358;SDS011;7779;49.596;11.070;2022-11-04T13:10:25;1.73;;;0.80;;
15358;SDS011;7779;49.596;11.070;2022-11-04T13:13:28;1.80;;;0.90;;
15358;SDS011;7779;49.596;11.070;2022-11-04T13:16:02;1.50;;;0.80;;
15358;SDS011;7779;49.596;11.070;2022-11-04T13:18:36;3.67;;;0.97;;
15358;SDS011;7779;49.596;11.070;2022-11-04T13:21:06;1.77;;;0.90;;
15358;SDS011;7779;49.596;11.070;2022-11-04T13:26:46;2.53;;;1.03;;
15358;SDS011;7779;49.596;11.070;2022-11-04T13:29:13;2.00;;;0.80;;
15358;SDS011;7779;49.596;11.070;2022-11-04T13:31:48;1.83;;;0.77;;
15358;SDS011;7779;49.596;11.070;2022-11-04T13:34:41;4.90;;;0.97;;
15358;SDS011;7779;49.596;11.070;2022-11-04T13:37:40;2.00;;;0.80;;
15358;SDS011;7779;49.596;11.070;2022-11-04T13:43:52;2.77;;;1.00;;
15358;SDS011;7779;49.596;11.070;2022-11-04T13:46:30;2.53;;;0.90;;
15358;SDS011;7779;49.596;11.070;2022-11-04T13:51:44;1.30;;;0.60;;
15358;SDS011;7779;49.596;11.070;2022-11-04T13:54:26;2.67;;;1.00;;
15358;SDS011;7779;49.596;11.070;2022-11-04T13:57:16;2.83;;;0.90;;
15358;SDS011;7779;49.596;11.070;2022-11-04T14:02:42;3.00;;;1.00;;
15358;SDS011;7779;49.596;11.070;2022-11-04T14:10:57;3.20;;;1.50;;
15358;SDS011;7779;49.596;11.070;2022-11-04T14:16:05;2.93;;;1.23;;
15358;SDS011;7779;49.596;11.070;2022-11-04T14:18:42;1.33;;;1.00;;
15358;SDS011;7779;49.596;11.070;2022-11-04T14:21:12;2.90;;;1.50;;
15358;SDS011;7779;49.596;11.070;2022-11-04T14:23:44;2.33;;;1.20;;
15358;SDS011;7779;49.596;11.070;2022-11-04T14:26:15;3.83;;;0.90;;
15358;SDS011;7779;49.596;11.070;2022-11-04T14:29:01;1.83;;;0.90;;
15358;SDS011;7779;49.596;11.070;2022-11-04T14:34:02;2.83;;;1.00;;
15358;SDS011;7779;49.596;11.070;2022-11-04T14:44:12;2.90;;;0.77;;
15358;SDS011;7779;49.596;11.070;2022-11-04T14:47:01;5.93;;;1.00;;
15358;SDS011;7779;49.596;11.070;2022-11-04T14:54:53;1.70;;;0.80;;
15358;SDS011;7779;49.596;11.070;2022-11-04T14:57:27;2.90;;;1.10;;
15358;SDS011;7779;49.596;11.070;2022-11-04T14:59:55;4.33;;;1.27;;
15358;SDS011;7779;49.596;11.070;2022-11-04T15:02:24;3.17;;;1.13;;
15358;SDS011;7779;49.596;11.070;2022-11-04T15:04:59;1.83;;;1.17;;
15358;SDS011;7779;49.596;11.070;2022-11-04T15:07:33;3.90;;;1.27;;
15358;SDS011;7779;49.596;11.070;2022-11-04T15:10:16;2.37;;;1.30;;
15358;SDS011;7779;49.596;11.070;2022-11-04T15:12:50;3.57;;;1.53;;
15358;SDS011;7779;49.596;11.070;2022-11-04T15:18:01;3.73;;;1.90;;
15358;SDS011;7779;49.596;11.070;2022-11-04T15:20:43;4.80;;;2.03;;
15358;SDS011;7779;49.596;11.070;2022-11-04T15:23:29;3.57;;;2.10;;
15358;SDS011;7779;49.596;11.070;2022-11-04T15:25:58;3.77;;;2.27;;
15358;SDS011;7779;49.596;11.070;2022-11-04T15:28:30;4.40;;;2.47;;
15358;SDS011;7779;49.596;11.070;2022-11-04T15:33:41;5.27;;;2.30;;
15358;SDS011;7779;49.596;11.070;2022-11-04T15:36:17;5.10;;;2.30;;
15358;SDS011;7779;49.596;11.070;2022-11-04T15:39:30;2.77;;;2.10;;
15358;SDS011;7779;49.596;11.070;2022-11-04T15:41:40;2.90;;;1.90;;
15358;SDS011;7779;49.596;11.070;2022-11-04T15:44:28;6.23;;;2.20;;
15358;SDS011;7779;49.596;11.070;2022-11-04T15:46:57;3.67;;;2.30;;
15358;SDS011;7779;49.596;11.070;2022-11-04T15:49:27;2.93;;;2.20;;
15358;SDS011;7779;49.596;11.070;2022-11-04T15:51:57;4.30;;;2.50;;
15358;SDS011;7779;49.596;11.070;2022-11-04T15:54:29;3.33;;;2.03;;
15358;SDS011;7779;49.596;11.070;2022-11-04T15:57:02;6.10;;;2.10;;
15358;SDS011;7779;49.596;11.070;2022-11-04T15:59:38;3.10;;;1.80;;
15358;SDS011;7779;49.596;11.070;2022-11-04T16:02:21;1.60;;;1.47;;
15358;SDS011;7779;49.596;11.070;2022-11-04T16:05:01;3.30;;;1.67;;
15358;SDS011;7779;49.596;11.070;2022-11-04T16:07:33;3.20;;;1.43;;
15358;SDS011;7779;49.596;11.070;2022-11-04T16:10:02;1.97;;;1.20;;
15358;SDS011;7779;49.596;11.070;2022-11-04T16:15:41;1.43;;;0.80;;
15358;SDS011;7779;49.596;11.070;2022-11-04T16:18:22;3.27;;;1.40;;
15358;SDS011;7779;49.596;11.070;2022-11-04T16:23:46;6.47;;;5.20;;
15358;SDS011;7779;49.596;11.070;2022-11-04T16:26:22;4.90;;;4.40;;
15358;SDS011;7779;49.596;11.070;2022-11-04T16:28:52;5.67;;;4.03;;
15358;SDS011;7779;49.596;11.070;2022-11-04T16:33:46;4.83;;;3.87;;
15358;SDS011;7779;49.596;11.070;2022-11-04T16:36:13;6.23;;;3.80;;
15358;SDS011;7779;49.596;11.070;2022-11-04T16:38:55;5.57;;;3.40;;
15358;SDS011;7779;49.596;11.070;2022-11-04T16:41:36;7.13;;;3.97;;
15358;SDS011;7779;49.596;11.070;2022-11-04T16:44:04;4.67;;;3.13;;
15358;SDS011;7779;49.596;11.070;2022-11-04T16:46:42;8.97;;;3.80;;
15358;SDS011;7779;49.596;11.070;2022-11-04T16:49:10;6.27;;;4.23;;
15358;SDS011;7779;49.596;11.070;2022-11-04T16:51:42;4.73;;;3.67;;
15358;SDS011;7779;49.596;11.070;2022-11-04T16:54:09;6.90;;;3.90;;
15358;SDS011;7779;49.596;11.070;2022-11-04T16:56:35;4.63;;;3.37;;
15358;SDS011;7779;49.596;11.070;2022-11-04T16:59:02;6.13;;;3.37;;
15358;SDS011;7779;49.596;11.070;2022-11-04T17:01:28;5.73;;;2.90;;
15358;SDS011;7779;49.596;11.070;2022-11-04T17:03:54;3.87;;;3.10;;
15358;SDS011;7779;49.596;11.070;2022-11-04T17:06:20;3.83;;;2.60;;
15358;SDS011;7779;49.596;11.070;2022-11-04T17:08:45;5.20;;;3.20;;
15358;SDS011;7779;49.596;11.070;2022-11-04T17:11:11;3.23;;;2.93;;
15358;SDS011;7779;49.596;11.070;2022-11-04T17:13:37;5.33;;;3.80;;
15358;SDS011;7779;49.596;11.070;2022-11-04T17:16:06;7.77;;;5.73;;
15358;SDS011;7779;49.596;11.070;2022-11-04T17:18:37;9.37;;;6.80;;
15358;SDS011;7779;49.596;11.070;2022-11-04T17:21:07;9.93;;;6.37;;
15358;SDS011;7779;49.596;11.070;2022-11-04T17:23:37;8.60;;;6.20;;
15358;SDS011;7779;49.596;11.070;2022-11-04T17:26:03;5.33;;;4.50;;
15358;SDS011;7779;49.596;11.070;2022-11-04T17:28:29;7.13;;;4.83;;
15358;SDS011;7779;49.596;11.070;2022-11-04T17:30:57;5.90;;;4.10;;
15358;SDS011;7779;49.596;11.070;2022-11-04T17:33:22;6.73;;;4.73;;
15358;SDS011;7779;49.596;11.070;2022-11-04T17:35:48;10.70;;;6.23;;
15358;SDS011;7779;49.596;11.070;2022-11-04T17:38:16;9.00;;;6.73;;
15358;SDS011;7779;49.596;11.070;2022-11-04T17:40:43;11.40;;;7.70;;
15358;SDS011;7779;49.596;11.070;2022-11-04T17:43:28;9.63;;;6.60;;
15358;SDS011;7779;49.596;11.070;2022-11-04T17:46:12;7.30;;;4.93;;
15358;SDS011;7779;49.596;11.070;2022-11-04T17:48:57;6.33;;;4.57;;
15358;SDS011;7779;49.596;11.070;2022-11-04T17:51:23;5.93;;;4.33;;
15358;SDS011;7779;49.596;11.070;2022-11-04T17:53:49;5.73;;;4.00;;
15358;SDS011;7779;49.596;11.070;2022-11-04T17:56:15;6.93;;;4.13;;
15358;SDS011;7779;49.596;11.070;2022-11-04T17:58:43;5.27;;;3.30;;